sensor_id;sensor_type;location;lat;lon;timestamp;temperature;humidity
25732;DHT22;13585;50.864;4.406;2023-01-24T00:01:55;14.90;62.30
25732;DHT22;13585;50.864;4.406;2023-01-24T00:04:36;14.90;62.30
25732;DHT22;13585;50.864;4.406;2023-01-24T00:07:05;14.80;62.20
25732;DHT22;13585;50.864;4.406;2023-01-24T00:09:45;14.90;62.20
25732;DHT22;13585;50.864;4.406;2023-01-24T00:12:27;14.90;62.10
25732;DHT22;13585;50.864;4.406;2023-01-24T00:14:53;14.80;62.10
25732;DHT22;13585;50.864;4.406;2023-01-24T00:17:19;14.90;62.10
25732;DHT22;13585;50.864;4.406;2023-01-24T00:19:44;14.80;61.90
25732;DHT22;13585;50.864;4.406;2023-01-24T00:22:10;14.80;61.90
25732;DHT22;13585;50.864;4.406;2023-01-24T00:24:36;14.80;61.80
25732;DHT22;13585;50.864;4.406;2023-01-24T00:27:02;14.80;61.70
25732;DHT22;13585;50.864;4.406;2023-01-24T00:29:28;14.80;61.70
25732;DHT22;13585;50.864;4.406;2023-01-24T00:31:53;14.80;61.70
25732;DHT22;13585;50.864;4.406;2023-01-24T00:34:19;14.80;61.60
25732;DHT22;13585;50.864;4.406;2023-01-24T00:36:45;14.90;61.70
25732;DHT22;13585;50.864;4.406;2023-01-24T00:39:10;14.80;61.60
25732;DHT22;13585;50.864;4.406;2023-01-24T00:41:36;14.80;61.50
25732;DHT22;13585;50.864;4.406;2023-01-24T00:44:02;14.90;61.60
25732;DHT22;13585;50.864;4.406;2023-01-24T00:46:27;14.80;61.50
25732;DHT22;13585;50.864;4.406;2023-01-24T00:48:53;14.80;61.40
25732;DHT22;13585;50.864;4.406;2023-01-24T00:51:19;14.80;61.40
25732;DHT22;13585;50.864;4.406;2023-01-24T00:53:44;14.80;61.30
25732;DHT22;13585;50.864;4.406;2023-01-24T00:56:10;14.80;61.30
25732;DHT22;13585;50.864;4.406;2023-01-24T00:58:36;14.80;61.20
25732;DHT22;13585;50.864;4.406;2023-01-24T01:01:01;14.80;61.20
25732;DHT22;13585;50.864;4.406;2023-01-24T01:03:30;14.80;61.20
25732;DHT22;13585;50.864;4.406;2023-01-24T01:06:08;14.80;61.10
25732;DHT22;13585;50.864;4.406;2023-01-24T01:08:34;14.80;61.10
25732;DHT22;13585;50.864;4.406;2023-01-24T01:11:01;14.80;61.10
25732;DHT22;13585;50.864;4.406;2023-01-24T01:13:27;14.80;61.10
25732;DHT22;13585;50.864;4.406;2023-01-24T01:16:03;14.80;61.00
25732;DHT22;13585;50.864;4.406;2023-01-24T01:18:30;14.80;61.00
25732;DHT22;13585;50.864;4.406;2023-01-24T01:20:55;14.80;61.00
25732;DHT22;13585;50.864;4.406;2023-01-24T01:23:21;14.80;60.90
25732;DHT22;13585;50.864;4.406;2023-01-24T01:25:47;14.80;60.90
25732;DHT22;13585;50.864;4.406;2023-01-24T01:28:12;14.80;60.90
25732;DHT22;13585;50.864;4.406;2023-01-24T01:30:38;14.80;60.80
25732;DHT22;13585;50.864;4.406;2023-01-24T01:33:03;14.80;60.80
25732;DHT22;13585;50.864;4.406;2023-01-24T01:35:29;14.80;60.80
25732;DHT22;13585;50.864;4.406;2023-01-24T01:37:55;14.80;60.80
25732;DHT22;13585;50.864;4.406;2023-01-24T01:40:20;14.70;60.70
25732;DHT22;13585;50.864;4.406;2023-01-24T01:42:52;14.80;60.70
25732;DHT22;13585;50.864;4.406;2023-01-24T01:45:33;14.70;60.60
25732;DHT22;13585;50.864;4.406;2023-01-24T01:48:01;14.70;60.60
25732;DHT22;13585;50.864;4.406;2023-01-24T01:50:33;14.80;60.60
25732;DHT22;13585;50.864;4.406;2023-01-24T01:53:00;14.70;60.60
25732;DHT22;13585;50.864;4.406;2023-01-24T01:55:28;14.70;60.40
25732;DHT22;13585;50.864;4.406;2023-01-24T01:57:56;14.80;60.40
25732;DHT22;13585;50.864;4.406;2023-01-24T02:00:25;14.70;60.40
25732;DHT22;13585;50.864;4.406;2023-01-24T02:03:09;14.70;60.30
25732;DHT22;13585;50.864;4.406;2023-01-24T02:05:54;14.70;60.40
25732;DHT22;13585;50.864;4.406;2023-01-24T02:08:23;14.80;60.40
25732;DHT22;13585;50.864;4.406;2023-01-24T02:10:50;14.70;60.30
25732;DHT22;13585;50.864;4.406;2023-01-24T02:13:37;14.70;60.30
25732;DHT22;13585;50.864;4.406;2023-01-24T02:16:09;14.70;60.30
25732;DHT22;13585;50.864;4.406;2023-01-24T02:18:40;14.70;60.30
25732;DHT22;13585;50.864;4.406;2023-01-24T02:21:11;14.70;60.30
25732;DHT22;13585;50.864;4.406;2023-01-24T02:26:20;14.70;60.30
25732;DHT22;13585;50.864;4.406;2023-01-24T02:28:56;14.70;60.30
25732;DHT22;13585;50.864;4.406;2023-01-24T02:31:23;14.70;60.20
25732;DHT22;13585;50.864;4.406;2023-01-24T02:33:49;14.70;60.20
25732;DHT22;13585;50.864;4.406;2023-01-24T02:36:36;14.70;60.20
25732;DHT22;13585;50.864;4.406;2023-01-24T02:39:26;14.60;60.20
25732;DHT22;13585;50.864;4.406;2023-01-24T02:42:08;14.70;60.20
25732;DHT22;13585;50.864;4.406;2023-01-24T02:44:44;14.70;60.10
25732;DHT22;13585;50.864;4.406;2023-01-24T02:47:12;14.70;60.00
25732;DHT22;13585;50.864;4.406;2023-01-24T02:49:37;14.70;60.00
25732;DHT22;13585;50.864;4.406;2023-01-24T02:52:03;14.70;60.00
25732;DHT22;13585;50.864;4.406;2023-01-24T02:54:52;14.70;60.00
25732;DHT22;13585;50.864;4.406;2023-01-24T02:57:18;14.70;60.00
25732;DHT22;13585;50.864;4.406;2023-01-24T03:00:07;14.70;60.00
25732;DHT22;13585;50.864;4.406;2023-01-24T03:02:33;14.70;60.00
25732;DHT22;13585;50.864;4.406;2023-01-24T03:04:59;14.60;59.90
25732;DHT22;13585;50.864;4.406;2023-01-24T03:07:24;14.70;60.00
25732;DHT22;13585;50.864;4.406;2023-01-24T03:09:50;14.60;59.90
25732;DHT22;13585;50.864;4.406;2023-01-24T03:12:15;14.70;59.90
25732;DHT22;13585;50.864;4.406;2023-01-24T03:14:59;14.60;59.90
25732;DHT22;13585;50.864;4.406;2023-01-24T03:17:44;14.60;59.80
25732;DHT22;13585;50.864;4.406;2023-01-24T03:20:28;14.70;59.80
25732;DHT22;13585;50.864;4.406;2023-01-24T03:23:12;14.70;59.80
25732;DHT22;13585;50.864;4.406;2023-01-24T03:25:57;14.70;59.80
25732;DHT22;13585;50.864;4.406;2023-01-24T03:28:42;14.60;59.70
25732;DHT22;13585;50.864;4.406;2023-01-24T03:31:26;14.60;59.70
25732;DHT22;13585;50.864;4.406;2023-01-24T03:34:11;14.60;59.70
25732;DHT22;13585;50.864;4.406;2023-01-24T03:36:58;14.70;59.80
25732;DHT22;13585;50.864;4.406;2023-01-24T03:39:24;14.70;59.70
25732;DHT22;13585;50.864;4.406;2023-01-24T03:42:08;14.60;59.70
25732;DHT22;13585;50.864;4.406;2023-01-24T03:44:34;14.70;59.70
25732;DHT22;13585;50.864;4.406;2023-01-24T03:47:00;14.60;59.60
25732;DHT22;13585;50.864;4.406;2023-01-24T03:49:25;14.60;59.60
25732;DHT22;13585;50.864;4.406;2023-01-24T03:52:09;14.60;59.60
25732;DHT22;13585;50.864;4.406;2023-01-24T03:54:55;14.60;59.50
25732;DHT22;13585;50.864;4.406;2023-01-24T03:57:21;14.60;59.50
25732;DHT22;13585;50.864;4.406;2023-01-24T03:59:47;14.60;59.50
25732;DHT22;13585;50.864;4.406;2023-01-24T04:02:12;14.60;59.50
25732;DHT22;13585;50.864;4.406;2023-01-24T04:04:38;14.60;59.50
25732;DHT22;13585;50.864;4.406;2023-01-24T04:07:22;14.60;59.50
25732;DHT22;13585;50.864;4.406;2023-01-24T04:09:47;14.60;59.50
25732;DHT22;13585;50.864;4.406;2023-01-24T04:12:13;14.60;59.50
25732;DHT22;13585;50.864;4.406;2023-01-24T04:14:39;14.60;59.50
25732;DHT22;13585;50.864;4.406;2023-01-24T04:17:04;14.60;59.40
25732;DHT22;13585;50.864;4.406;2023-01-24T04:19:30;14.60;59.40
25732;DHT22;13585;50.864;4.406;2023-01-24T04:21:55;14.60;59.40
25732;DHT22;13585;50.864;4.406;2023-01-24T04:24:23;14.60;59.30
25732;DHT22;13585;50.864;4.406;2023-01-24T04:26:49;14.60;59.20
25732;DHT22;13585;50.864;4.406;2023-01-24T04:29:14;14.70;59.10
25732;DHT22;13585;50.864;4.406;2023-01-24T04:31:40;14.70;59.10
25732;DHT22;13585;50.864;4.406;2023-01-24T04:34:05;14.60;59.00
25732;DHT22;13585;50.864;4.406;2023-01-24T04:36:31;14.70;59.00
25732;DHT22;13585;50.864;4.406;2023-01-24T04:38:57;14.60;58.90
25732;DHT22;13585;50.864;4.406;2023-01-24T04:41:22;14.70;58.90
25732;DHT22;13585;50.864;4.406;2023-01-24T04:43:48;14.70;58.80
25732;DHT22;13585;50.864;4.406;2023-01-24T04:46:13;14.70;58.80
25732;DHT22;13585;50.864;4.406;2023-01-24T04:48:39;14.70;58.70
25732;DHT22;13585;50.864;4.406;2023-01-24T04:51:05;14.70;58.80
25732;DHT22;13585;50.864;4.406;2023-01-24T04:53:30;14.70;58.70
25732;DHT22;13585;50.864;4.406;2023-01-24T04:56:00;14.70;58.70
25732;DHT22;13585;50.864;4.406;2023-01-24T04:58:26;14.70;58.70
25732;DHT22;13585;50.864;4.406;2023-01-24T05:00:53;14.80;58.70
25732;DHT22;13585;50.864;4.406;2023-01-24T05:03:18;14.80;58.70
25732;DHT22;13585;50.864;4.406;2023-01-24T05:05:51;14.80;58.70
25732;DHT22;13585;50.864;4.406;2023-01-24T05:08:17;14.80;58.70
25732;DHT22;13585;50.864;4.406;2023-01-24T05:10:43;14.80;58.60
25732;DHT22;13585;50.864;4.406;2023-01-24T05:13:09;14.80;58.70
25732;DHT22;13585;50.864;4.406;2023-01-24T05:15:35;14.80;58.70
25732;DHT22;13585;50.864;4.406;2023-01-24T05:18:02;14.80;58.70
25732;DHT22;13585;50.864;4.406;2023-01-24T05:20:27;14.80;58.70
25732;DHT22;13585;50.864;4.406;2023-01-24T05:22:57;14.80;58.60
25732;DHT22;13585;50.864;4.406;2023-01-24T05:25:23;14.90;58.80
25732;DHT22;13585;50.864;4.406;2023-01-24T05:27:49;14.80;58.70
25732;DHT22;13585;50.864;4.406;2023-01-24T05:30:15;14.90;58.70
25732;DHT22;13585;50.864;4.406;2023-01-24T05:32:40;14.90;58.70
25732;DHT22;13585;50.864;4.406;2023-01-24T05:35:06;14.90;58.70
25732;DHT22;13585;50.864;4.406;2023-01-24T05:37:32;14.90;58.70
25732;DHT22;13585;50.864;4.406;2023-01-24T05:40:01;14.90;58.80
25732;DHT22;13585;50.864;4.406;2023-01-24T05:42:26;14.90;58.80
25732;DHT22;13585;50.864;4.406;2023-01-24T05:44:52;14.90;58.80
25732;DHT22;13585;50.864;4.406;2023-01-24T05:47:17;14.90;58.80
25732;DHT22;13585;50.864;4.406;2023-01-24T05:49:43;14.90;58.80
25732;DHT22;13585;50.864;4.406;2023-01-24T05:52:08;14.90;58.80
25732;DHT22;13585;50.864;4.406;2023-01-24T05:54:34;14.90;58.80
25732;DHT22;13585;50.864;4.406;2023-01-24T05:57:00;15.00;58.80
25732;DHT22;13585;50.864;4.406;2023-01-24T05:59:25;14.90;59.40
25732;DHT22;13585;50.864;4.406;2023-01-24T06:01:51;15.00;58.90
25732;DHT22;13585;50.864;4.406;2023-01-24T06:04:17;15.00;58.90
25732;DHT22;13585;50.864;4.406;2023-01-24T06:06:43;15.00;58.90
25732;DHT22;13585;50.864;4.406;2023-01-24T06:09:09;15.00;58.90
25732;DHT22;13585;50.864;4.406;2023-01-24T06:11:34;15.00;58.90
25732;DHT22;13585;50.864;4.406;2023-01-24T06:14:00;15.00;58.90
25732;DHT22;13585;50.864;4.406;2023-01-24T06:16:26;15.00;58.90
25732;DHT22;13585;50.864;4.406;2023-01-24T06:18:53;15.10;59.00
25732;DHT22;13585;50.864;4.406;2023-01-24T06:23:45;15.00;58.90
25732;DHT22;13585;50.864;4.406;2023-01-24T06:26:13;15.10;59.00
25732;DHT22;13585;50.864;4.406;2023-01-24T06:28:39;15.10;59.00
25732;DHT22;13585;50.864;4.406;2023-01-24T06:31:32;15.10;59.00
25732;DHT22;13585;50.864;4.406;2023-01-24T06:34:28;15.10;59.00
25732;DHT22;13585;50.864;4.406;2023-01-24T06:37:06;15.10;59.00
25732;DHT22;13585;50.864;4.406;2023-01-24T06:39:34;15.10;59.00
25732;DHT22;13585;50.864;4.406;2023-01-24T06:42:01;15.10;59.00
25732;DHT22;13585;50.864;4.406;2023-01-24T06:44:27;15.10;59.00
25732;DHT22;13585;50.864;4.406;2023-01-24T06:46:53;15.10;59.00
25732;DHT22;13585;50.864;4.406;2023-01-24T06:49:19;15.10;59.00
25732;DHT22;13585;50.864;4.406;2023-01-24T06:51:50;15.10;59.10
25732;DHT22;13585;50.864;4.406;2023-01-24T06:54:15;15.10;59.00
25732;DHT22;13585;50.864;4.406;2023-01-24T06:56:41;15.10;59.00
25732;DHT22;13585;50.864;4.406;2023-01-24T06:59:07;15.10;59.00
25732;DHT22;13585;50.864;4.406;2023-01-24T07:01:32;15.10;59.00
25732;DHT22;13585;50.864;4.406;2023-01-24T07:03:58;15.10;59.00
25732;DHT22;13585;50.864;4.406;2023-01-24T07:06:24;15.10;59.00
25732;DHT22;13585;50.864;4.406;2023-01-24T07:08:49;15.10;59.10
25732;DHT22;13585;50.864;4.406;2023-01-24T07:11:15;15.10;59.20
25732;DHT22;13585;50.864;4.406;2023-01-24T07:13:41;15.10;59.20
25732;DHT22;13585;50.864;4.406;2023-01-24T07:16:06;15.10;59.30
25732;DHT22;13585;50.864;4.406;2023-01-24T07:18:32;15.10;59.30
25732;DHT22;13585;50.864;4.406;2023-01-24T07:20:58;15.10;59.30
25732;DHT22;13585;50.864;4.406;2023-01-24T07:23:27;15.10;59.40
25732;DHT22;13585;50.864;4.406;2023-01-24T07:25:58;15.10;59.40
25732;DHT22;13585;50.864;4.406;2023-01-24T07:28:24;15.10;59.40
25732;DHT22;13585;50.864;4.406;2023-01-24T07:30:52;15.10;59.50
25732;DHT22;13585;50.864;4.406;2023-01-24T07:33:18;15.10;59.60
25732;DHT22;13585;50.864;4.406;2023-01-24T07:35:44;15.10;59.50
25732;DHT22;13585;50.864;4.406;2023-01-24T07:38:10;15.10;59.50
25732;DHT22;13585;50.864;4.406;2023-01-24T07:40:37;15.10;59.50
25732;DHT22;13585;50.864;4.406;2023-01-24T07:43:04;15.20;59.60
25732;DHT22;13585;50.864;4.406;2023-01-24T07:45:30;15.10;59.50
25732;DHT22;13585;50.864;4.406;2023-01-24T07:47:58;15.10;59.50
25732;DHT22;13585;50.864;4.406;2023-01-24T07:50:27;15.10;59.50
25732;DHT22;13585;50.864;4.406;2023-01-24T07:52:53;15.10;59.60
25732;DHT22;13585;50.864;4.406;2023-01-24T07:55:20;15.10;59.50
25732;DHT22;13585;50.864;4.406;2023-01-24T07:57:45;15.10;59.50
25732;DHT22;13585;50.864;4.406;2023-01-24T08:00:11;15.10;59.50
25732;DHT22;13585;50.864;4.406;2023-01-24T08:02:39;15.10;59.50
25732;DHT22;13585;50.864;4.406;2023-01-24T08:05:05;15.10;59.50
25732;DHT22;13585;50.864;4.406;2023-01-24T08:07:31;15.00;59.50
25732;DHT22;13585;50.864;4.406;2023-01-24T08:09:57;15.00;59.50
25732;DHT22;13585;50.864;4.406;2023-01-24T08:12:22;15.10;59.50
25732;DHT22;13585;50.864;4.406;2023-01-24T08:14:48;15.10;59.50
25732;DHT22;13585;50.864;4.406;2023-01-24T08:17:13;15.00;59.50
25732;DHT22;13585;50.864;4.406;2023-01-24T08:19:39;15.00;59.40
25732;DHT22;13585;50.864;4.406;2023-01-24T08:22:06;15.10;59.50
25732;DHT22;13585;50.864;4.406;2023-01-24T08:24:32;15.00;59.40
25732;DHT22;13585;50.864;4.406;2023-01-24T08:26:59;15.00;59.40
25732;DHT22;13585;50.864;4.406;2023-01-24T08:29:25;15.00;59.40
25732;DHT22;13585;50.864;4.406;2023-01-24T08:31:51;15.00;59.40
25732;DHT22;13585;50.864;4.406;2023-01-24T08:34:16;15.00;59.30
25732;DHT22;13585;50.864;4.406;2023-01-24T08:36:42;15.00;59.40
25732;DHT22;13585;50.864;4.406;2023-01-24T08:39:08;15.00;59.30
25732;DHT22;13585;50.864;4.406;2023-01-24T08:41:33;15.00;59.30
25732;DHT22;13585;50.864;4.406;2023-01-24T08:44:00;15.00;59.30
25732;DHT22;13585;50.864;4.406;2023-01-24T08:46:28;15.00;59.30
25732;DHT22;13585;50.864;4.406;2023-01-24T08:48:53;15.00;59.20
25732;DHT22;13585;50.864;4.406;2023-01-24T08:51:19;15.00;59.20
25732;DHT22;13585;50.864;4.406;2023-01-24T08:53:44;15.00;59.20
25732;DHT22;13585;50.864;4.406;2023-01-24T08:56:10;15.00;59.20
25732;DHT22;13585;50.864;4.406;2023-01-24T08:58:36;15.00;59.20
25732;DHT22;13585;50.864;4.406;2023-01-24T09:01:11;15.00;59.10
25732;DHT22;13585;50.864;4.406;2023-01-24T09:03:37;14.90;59.10
25732;DHT22;13585;50.864;4.406;2023-01-24T09:06:03;14.90;59.00
25732;DHT22;13585;50.864;4.406;2023-01-24T09:08:29;15.00;59.10
25732;DHT22;13585;50.864;4.406;2023-01-24T09:10:58;14.90;59.00
25732;DHT22;13585;50.864;4.406;2023-01-24T09:13:24;14.90;59.00
25732;DHT22;13585;50.864;4.406;2023-01-24T09:15:50;15.00;59.10
25732;DHT22;13585;50.864;4.406;2023-01-24T09:18:15;14.90;59.00
25732;DHT22;13585;50.864;4.406;2023-01-24T09:20:42;14.90;59.00
25732;DHT22;13585;50.864;4.406;2023-01-24T09:23:12;14.90;59.00
25732;DHT22;13585;50.864;4.406;2023-01-24T09:25:40;14.90;59.00
25732;DHT22;13585;50.864;4.406;2023-01-24T09:28:06;14.90;58.90
25732;DHT22;13585;50.864;4.406;2023-01-24T09:30:33;14.90;58.90
25732;DHT22;13585;50.864;4.406;2023-01-24T09:33:02;15.00;58.90
25732;DHT22;13585;50.864;4.406;2023-01-24T09:35:28;14.90;58.90
25732;DHT22;13585;50.864;4.406;2023-01-24T09:37:53;14.90;58.90
25732;DHT22;13585;50.864;4.406;2023-01-24T09:40:22;14.90;58.90
25732;DHT22;13585;50.864;4.406;2023-01-24T09:46:05;14.90;58.80
25732;DHT22;13585;50.864;4.406;2023-01-24T09:48:34;14.90;58.80
25732;DHT22;13585;50.864;4.406;2023-01-24T09:51:05;14.90;58.80
25732;DHT22;13585;50.864;4.406;2023-01-24T09:53:38;14.90;58.80
25732;DHT22;13585;50.864;4.406;2023-01-24T09:56:05;14.90;58.80
25732;DHT22;13585;50.864;4.406;2023-01-24T09:58:39;14.90;58.80
25732;DHT22;13585;50.864;4.406;2023-01-24T10:01:13;14.90;58.80
25732;DHT22;13585;50.864;4.406;2023-01-24T10:03:40;14.90;58.80
25732;DHT22;13585;50.864;4.406;2023-01-24T10:11:55;14.90;58.70
25732;DHT22;13585;50.864;4.406;2023-01-24T10:17:52;14.90;58.70
25732;DHT22;13585;50.864;4.406;2023-01-24T10:23:26;14.90;58.60
25732;DHT22;13585;50.864;4.406;2023-01-24T10:28:34;14.80;58.60
25732;DHT22;13585;50.864;4.406;2023-01-24T10:31:08;14.80;58.60
25732;DHT22;13585;50.864;4.406;2023-01-24T10:33:49;14.80;58.60
25732;DHT22;13585;50.864;4.406;2023-01-24T10:36:39;14.80;58.60
25732;DHT22;13585;50.864;4.406;2023-01-24T10:39:11;14.80;58.50
25732;DHT22;13585;50.864;4.406;2023-01-24T10:41:38;14.80;58.50
25732;DHT22;13585;50.864;4.406;2023-01-24T10:44:29;14.80;58.50
25732;DHT22;13585;50.864;4.406;2023-01-24T10:47:20;14.80;58.50
25732;DHT22;13585;50.864;4.406;2023-01-24T10:49:59;14.80;58.50
25732;DHT22;13585;50.864;4.406;2023-01-24T10:52:25;14.80;58.50
25732;DHT22;13585;50.864;4.406;2023-01-24T10:54:54;14.80;58.50
25732;DHT22;13585;50.864;4.406;2023-01-24T10:59:46;14.80;58.50
25732;DHT22;13585;50.864;4.406;2023-01-24T11:02:23;14.90;58.60
25732;DHT22;13585;50.864;4.406;2023-01-24T11:05:03;14.80;58.60
25732;DHT22;13585;50.864;4.406;2023-01-24T11:07:32;14.80;58.50
25732;DHT22;13585;50.864;4.406;2023-01-24T11:12:51;14.80;58.50
25732;DHT22;13585;50.864;4.406;2023-01-24T11:15:21;14.80;58.50
25732;DHT22;13585;50.864;4.406;2023-01-24T11:17:53;14.80;58.50
25732;DHT22;13585;50.864;4.406;2023-01-24T11:20:27;14.80;58.50
25732;DHT22;13585;50.864;4.406;2023-01-24T11:23:22;14.80;58.50
25732;DHT22;13585;50.864;4.406;2023-01-24T11:26:00;14.80;59.20
25732;DHT22;13585;50.864;4.406;2023-01-24T11:31:54;14.80;58.60
25732;DHT22;13585;50.864;4.406;2023-01-24T11:34:42;14.80;58.50
25732;DHT22;13585;50.864;4.406;2023-01-24T11:54:43;14.80;58.70
25732;DHT22;13585;50.864;4.406;2023-01-24T11:57:38;14.80;58.70
25732;DHT22;13585;50.864;4.406;2023-01-24T12:00:50;14.80;58.70
25732;DHT22;13585;50.864;4.406;2023-01-24T12:06:03;14.80;58.60
25732;DHT22;13585;50.864;4.406;2023-01-24T12:08:48;14.70;58.70
25732;DHT22;13585;50.864;4.406;2023-01-24T12:11:33;14.80;58.70
25732;DHT22;13585;50.864;4.406;2023-01-24T12:17:00;14.80;58.80
25732;DHT22;13585;50.864;4.406;2023-01-24T12:22:17;14.80;58.80
25732;DHT22;13585;50.864;4.406;2023-01-24T12:24:46;14.80;58.80
25732;DHT22;13585;50.864;4.406;2023-01-24T12:27:16;14.80;58.80
25732;DHT22;13585;50.864;4.406;2023-01-24T12:29:46;14.80;58.80
25732;DHT22;13585;50.864;4.406;2023-01-24T12:35:22;14.80;58.80
25732;DHT22;13585;50.864;4.406;2023-01-24T12:38:24;14.80;58.80
25732;DHT22;13585;50.864;4.406;2023-01-24T12:55:13;14.80;58.80
25732;DHT22;13585;50.864;4.406;2023-01-24T13:00:20;14.80;58.80
25732;DHT22;13585;50.864;4.406;2023-01-24T13:06:14;14.70;58.80
25732;DHT22;13585;50.864;4.406;2023-01-24T13:08:54;14.70;58.80
25732;DHT22;13585;50.864;4.406;2023-01-24T13:11:26;14.80;58.80
25732;DHT22;13585;50.864;4.406;2023-01-24T13:14:05;14.80;58.80
25732;DHT22;13585;50.864;4.406;2023-01-24T13:25:32;14.80;58.80
25732;DHT22;13585;50.864;4.406;2023-01-24T13:33:54;14.70;58.80
25732;DHT22;13585;50.864;4.406;2023-01-24T13:36:29;14.80;58.80
25732;DHT22;13585;50.864;4.406;2023-01-24T13:38:56;14.70;58.80
25732;DHT22;13585;50.864;4.406;2023-01-24T13:51:57;14.70;58.80
25732;DHT22;13585;50.864;4.406;2023-01-24T13:54:38;14.80;58.80
25732;DHT22;13585;50.864;4.406;2023-01-24T13:57:21;14.80;58.80
25732;DHT22;13585;50.864;4.406;2023-01-24T14:00:17;14.70;58.70
25732;DHT22;13585;50.864;4.406;2023-01-24T14:11:06;14.70;58.70
25732;DHT22;13585;50.864;4.406;2023-01-24T14:19:20;14.70;58.70
25732;DHT22;13585;50.864;4.406;2023-01-24T14:21:51;14.70;58.70
25732;DHT22;13585;50.864;4.406;2023-01-24T14:24:33;14.70;58.60
25732;DHT22;13585;50.864;4.406;2023-01-24T14:27:04;14.70;58.70
25732;DHT22;13585;50.864;4.406;2023-01-24T14:29:38;14.70;58.70
25732;DHT22;13585;50.864;4.406;2023-01-24T14:32:18;14.70;58.70
25732;DHT22;13585;50.864;4.406;2023-01-24T14:37:33;14.70;58.60
25732;DHT22;13585;50.864;4.406;2023-01-24T14:40:22;14.70;58.60
25732;DHT22;13585;50.864;4.406;2023-01-24T14:42:58;14.70;58.70
25732;DHT22;13585;50.864;4.406;2023-01-24T14:45:28;14.70;58.60
25732;DHT22;13585;50.864;4.406;2023-01-24T14:47:56;14.70;58.60
25732;DHT22;13585;50.864;4.406;2023-01-24T14:50:34;14.70;58.60
25732;DHT22;13585;50.864;4.406;2023-01-24T14:53:01;14.70;58.70
25732;DHT22;13585;50.864;4.406;2023-01-24T14:57:53;14.70;58.60
25732;DHT22;13585;50.864;4.406;2023-01-24T15:00:21;14.70;58.60
25732;DHT22;13585;50.864;4.406;2023-01-24T15:02:52;14.70;58.60
25732;DHT22;13585;50.864;4.406;2023-01-24T15:05:25;14.70;58.60
25732;DHT22;13585;50.864;4.406;2023-01-24T15:07:52;14.70;58.60
25732;DHT22;13585;50.864;4.406;2023-01-24T15:10:37;14.70;58.50
25732;DHT22;13585;50.864;4.406;2023-01-24T15:13:06;14.70;58.50
25732;DHT22;13585;50.864;4.406;2023-01-24T15:15:33;14.70;58.50
25732;DHT22;13585;50.864;4.406;2023-01-24T15:18:07;14.70;58.50
25732;DHT22;13585;50.864;4.406;2023-01-24T15:20:47;14.70;58.50
25732;DHT22;13585;50.864;4.406;2023-01-24T15:23:17;14.70;58.50
25732;DHT22;13585;50.864;4.406;2023-01-24T15:25:44;14.70;58.50
25732;DHT22;13585;50.864;4.406;2023-01-24T15:28:31;14.70;58.50
25732;DHT22;13585;50.864;4.406;2023-01-24T15:31:00;14.70;58.50
25732;DHT22;13585;50.864;4.406;2023-01-24T15:33:52;14.70;58.40
25732;DHT22;13585;50.864;4.406;2023-01-24T15:36:24;14.60;58.50
25732;DHT22;13585;50.864;4.406;2023-01-24T15:38:51;14.60;58.40
25732;DHT22;13585;50.864;4.406;2023-01-24T15:41:23;14.70;58.40
25732;DHT22;13585;50.864;4.406;2023-01-24T15:44:02;14.60;58.40
25732;DHT22;13585;50.864;4.406;2023-01-24T15:46:38;14.60;58.40
25732;DHT22;13585;50.864;4.406;2023-01-24T15:49:38;14.60;58.40
25732;DHT22;13585;50.864;4.406;2023-01-24T15:54:33;14.70;58.40
25732;DHT22;13585;50.864;4.406;2023-01-24T15:57:04;14.60;58.30
25732;DHT22;13585;50.864;4.406;2023-01-24T15:59:32;14.70;58.40
25732;DHT22;13585;50.864;4.406;2023-01-24T16:01:59;14.60;58.30
25732;DHT22;13585;50.864;4.406;2023-01-24T16:04:25;14.70;58.40
25732;DHT22;13585;50.864;4.406;2023-01-24T16:06:50;14.70;58.30
25732;DHT22;13585;50.864;4.406;2023-01-24T16:09:16;14.60;58.30
25732;DHT22;13585;50.864;4.406;2023-01-24T16:11:44;14.70;58.30
25732;DHT22;13585;50.864;4.406;2023-01-24T16:14:20;14.70;58.30
25732;DHT22;13585;50.864;4.406;2023-01-24T16:16:47;14.60;58.30
25732;DHT22;13585;50.864;4.406;2023-01-24T16:19:18;14.70;58.30
25732;DHT22;13585;50.864;4.406;2023-01-24T16:21:45;14.70;58.20
25732;DHT22;13585;50.864;4.406;2023-01-24T16:24:11;14.70;58.30
25732;DHT22;13585;50.864;4.406;2023-01-24T16:26:39;14.70;58.20
25732;DHT22;13585;50.864;4.406;2023-01-24T16:29:13;14.70;58.20
25732;DHT22;13585;50.864;4.406;2023-01-24T16:31:40;14.60;58.10
25732;DHT22;13585;50.864;4.406;2023-01-24T16:34:05;14.70;58.00
25732;DHT22;13585;50.864;4.406;2023-01-24T16:36:32;14.60;58.00
25732;DHT22;13585;50.864;4.406;2023-01-24T16:38:58;14.60;57.90
25732;DHT22;13585;50.864;4.406;2023-01-24T16:41:24;14.70;58.00
25732;DHT22;13585;50.864;4.406;2023-01-24T16:43:49;14.70;57.90
25732;DHT22;13585;50.864;4.406;2023-01-24T16:46:19;14.70;57.90
25732;DHT22;13585;50.864;4.406;2023-01-24T16:48:46;14.70;57.90
25732;DHT22;13585;50.864;4.406;2023-01-24T16:51:13;14.70;57.90
25732;DHT22;13585;50.864;4.406;2023-01-24T16:53:39;14.70;58.50
25732;DHT22;13585;50.864;4.406;2023-01-24T16:56:05;14.70;57.90
25732;DHT22;13585;50.864;4.406;2023-01-24T16:58:31;14.70;57.90
25732;DHT22;13585;50.864;4.406;2023-01-24T17:00:57;14.70;57.90
25732;DHT22;13585;50.864;4.406;2023-01-24T17:03:23;14.80;58.00
25732;DHT22;13585;50.864;4.406;2023-01-24T17:05:48;14.80;58.00
25732;DHT22;13585;50.864;4.406;2023-01-24T17:08:14;14.80;58.10
25732;DHT22;13585;50.864;4.406;2023-01-24T17:10:41;14.80;58.10
25732;DHT22;13585;50.864;4.406;2023-01-24T17:13:07;14.80;58.20
25732;DHT22;13585;50.864;4.406;2023-01-24T17:15:35;14.80;58.30
25732;DHT22;13585;50.864;4.406;2023-01-24T17:18:01;14.80;58.40
25732;DHT22;13585;50.864;4.406;2023-01-24T17:20:27;14.90;58.60
25732;DHT22;13585;50.864;4.406;2023-01-24T17:22:52;14.80;58.70
25732;DHT22;13585;50.864;4.406;2023-01-24T17:25:18;14.90;58.90
25732;DHT22;13585;50.864;4.406;2023-01-24T17:27:44;14.90;59.10
25732;DHT22;13585;50.864;4.406;2023-01-24T17:30:10;14.90;59.30
25732;DHT22;13585;50.864;4.406;2023-01-24T17:32:36;14.90;59.40
25732;DHT22;13585;50.864;4.406;2023-01-24T17:35:05;15.00;59.60
25732;DHT22;13585;50.864;4.406;2023-01-24T17:37:31;15.00;59.90
25732;DHT22;13585;50.864;4.406;2023-01-24T17:39:56;15.00;60.20
25732;DHT22;13585;50.864;4.406;2023-01-24T17:42:22;15.00;60.50
25732;DHT22;13585;50.864;4.406;2023-01-24T17:44:49;15.00;60.60
25732;DHT22;13585;50.864;4.406;2023-01-24T17:47:15;15.10;61.10
25732;DHT22;13585;50.864;4.406;2023-01-24T17:49:41;15.10;61.40
25732;DHT22;13585;50.864;4.406;2023-01-24T17:52:06;15.10;61.70
25732;DHT22;13585;50.864;4.406;2023-01-24T17:54:32;15.10;62.10
25732;DHT22;13585;50.864;4.406;2023-01-24T17:56:58;15.10;62.50